sensor_id;sensor_type;location;lat;lon;timestamp;temperature;humidity
53073;DHT22;38955;48.916;2.336;2024-02-04T00:00:54;11.90;99.90
53073;DHT22;38955;48.916;2.336;2024-02-04T00:02:56;11.90;99.90
53073;DHT22;38955;48.916;2.336;2024-02-04T00:04:58;11.90;99.90
53073;DHT22;38955;48.916;2.336;2024-02-04T00:07:00;11.90;99.90
53073;DHT22;38955;48.916;2.336;2024-02-04T00:09:04;12.00;99.90
53073;DHT22;38955;48.916;2.336;2024-02-04T00:11:07;11.90;99.90
53073;DHT22;38955;48.916;2.336;2024-02-04T00:13:13;11.90;99.90
53073;DHT22;38955;48.916;2.336;2024-02-04T00:15:15;11.90;99.90
53073;DHT22;38955;48.916;2.336;2024-02-04T00:17:17;12.00;99.90
53073;DHT22;38955;48.916;2.336;2024-02-04T00:19:19;12.00;99.90
53073;DHT22;38955;48.916;2.336;2024-02-04T00:21:21;12.10;99.90
53073;DHT22;38955;48.916;2.336;2024-02-04T00:23:23;12.00;99.90
53073;DHT22;38955;48.916;2.336;2024-02-04T00:25:26;12.00;99.90
53073;DHT22;38955;48.916;2.336;2024-02-04T00:27:29;12.10;99.90
53073;DHT22;38955;48.916;2.336;2024-02-04T00:29:31;12.10;99.90
53073;DHT22;38955;48.916;2.336;2024-02-04T00:31:33;12.00;99.90
53073;DHT22;38955;48.916;2.336;2024-02-04T00:33:35;12.00;99.90
53073;DHT22;38955;48.916;2.336;2024-02-04T00:35:38;12.00;99.90
53073;DHT22;38955;48.916;2.336;2024-02-04T00:37:40;12.00;99.90
53073;DHT22;38955;48.916;2.336;2024-02-04T00:39:42;12.00;99.90
53073;DHT22;38955;48.916;2.336;2024-02-04T00:41:44;12.00;99.90
53073;DHT22;38955;48.916;2.336;2024-02-04T00:43:48;11.90;99.90
53073;DHT22;38955;48.916;2.336;2024-02-04T00:45:50;12.00;99.90
53073;DHT22;38955;48.916;2.336;2024-02-04T00:47:52;12.00;99.90
53073;DHT22;38955;48.916;2.336;2024-02-04T00:49:56;12.00;99.90
53073;DHT22;38955;48.916;2.336;2024-02-04T00:51:58;12.00;99.90
53073;DHT22;38955;48.916;2.336;2024-02-04T00:54:01;12.00;99.90
53073;DHT22;38955;48.916;2.336;2024-02-04T00:56:04;12.00;99.90
53073;DHT22;38955;48.916;2.336;2024-02-04T00:58:06;12.00;99.90
53073;DHT22;38955;48.916;2.336;2024-02-04T01:00:11;12.00;99.90
53073;DHT22;38955;48.916;2.336;2024-02-04T01:02:14;12.00;99.90
53073;DHT22;38955;48.916;2.336;2024-02-04T01:04:16;11.90;99.90
53073;DHT22;38955;48.916;2.336;2024-02-04T01:06:19;12.00;99.90
53073;DHT22;38955;48.916;2.336;2024-02-04T01:08:21;12.00;99.90
53073;DHT22;38955;48.916;2.336;2024-02-04T01:10:23;11.90;99.90
53073;DHT22;38955;48.916;2.336;2024-02-04T01:12:25;12.00;99.90
53073;DHT22;38955;48.916;2.336;2024-02-04T01:14:27;12.00;99.90
53073;DHT22;38955;48.916;2.336;2024-02-04T01:16:31;12.10;99.90
53073;DHT22;38955;48.916;2.336;2024-02-04T01:18:33;12.10;99.90
53073;DHT22;38955;48.916;2.336;2024-02-04T01:20:35;12.00;99.90
53073;DHT22;38955;48.916;2.336;2024-02-04T01:22:37;12.10;99.90
53073;DHT22;38955;48.916;2.336;2024-02-04T01:24:39;12.10;99.90
53073;DHT22;38955;48.916;2.336;2024-02-04T01:26:42;12.10;99.90
53073;DHT22;38955;48.916;2.336;2024-02-04T01:28:44;12.10;99.90
53073;DHT22;38955;48.916;2.336;2024-02-04T01:30:46;12.00;99.90
53073;DHT22;38955;48.916;2.336;2024-02-04T01:32:50;12.10;99.90
53073;DHT22;38955;48.916;2.336;2024-02-04T01:34:52;12.10;99.90
53073;DHT22;38955;48.916;2.336;2024-02-04T01:36:55;11.90;99.90
53073;DHT22;38955;48.916;2.336;2024-02-04T01:38:57;11.90;99.90
53073;DHT22;38955;48.916;2.336;2024-02-04T01:40:59;11.90;99.90
53073;DHT22;38955;48.916;2.336;2024-02-04T01:43:01;11.90;99.90
53073;DHT22;38955;48.916;2.336;2024-02-04T01:45:04;11.90;99.90
53073;DHT22;38955;48.916;2.336;2024-02-04T01:47:06;11.90;99.90
53073;DHT22;38955;48.916;2.336;2024-02-04T01:49:10;11.90;99.90
53073;DHT22;38955;48.916;2.336;2024-02-04T01:51:13;11.80;99.90
53073;DHT22;38955;48.916;2.336;2024-02-04T01:53:17;11.80;99.90
53073;DHT22;38955;48.916;2.336;2024-02-04T01:55:19;11.80;99.90
53073;DHT22;38955;48.916;2.336;2024-02-04T01:57:22;11.80;99.90
53073;DHT22;38955;48.916;2.336;2024-02-04T01:59:25;11.80;99.90
53073;DHT22;38955;48.916;2.336;2024-02-04T02:01:31;11.70;99.90
53073;DHT22;38955;48.916;2.336;2024-02-04T02:03:34;11.70;99.90
53073;DHT22;38955;48.916;2.336;2024-02-04T02:05:39;11.80;99.90
53073;DHT22;38955;48.916;2.336;2024-02-04T02:07:42;11.80;99.90
53073;DHT22;38955;48.916;2.336;2024-02-04T02:09:46;11.80;99.90
53073;DHT22;38955;48.916;2.336;2024-02-04T02:11:56;11.80;99.90
53073;DHT22;38955;48.916;2.336;2024-02-04T02:14:01;11.70;99.90
53073;DHT22;38955;48.916;2.336;2024-02-04T02:16:08;11.70;99.90
53073;DHT22;38955;48.916;2.336;2024-02-04T02:18:17;11.80;99.90
53073;DHT22;38955;48.916;2.336;2024-02-04T02:20:23;11.90;99.90
53073;DHT22;38955;48.916;2.336;2024-02-04T02:22:29;11.90;99.90
53073;DHT22;38955;48.916;2.336;2024-02-04T02:24:34;11.90;99.90
53073;DHT22;38955;48.916;2.336;2024-02-04T02:26:37;11.80;99.90
53073;DHT22;38955;48.916;2.336;2024-02-04T02:28:40;11.80;99.90
53073;DHT22;38955;48.916;2.336;2024-02-04T02:30:42;11.80;99.90
53073;DHT22;38955;48.916;2.336;2024-02-04T02:32:46;11.90;99.90
53073;DHT22;38955;48.916;2.336;2024-02-04T02:34:48;11.90;99.90
53073;DHT22;38955;48.916;2.336;2024-02-04T02:36:55;11.90;99.90
53073;DHT22;38955;48.916;2.336;2024-02-04T02:39:02;12.00;99.90
53073;DHT22;38955;48.916;2.336;2024-02-04T02:41:12;12.00;99.90
53073;DHT22;38955;48.916;2.336;2024-02-04T02:43:16;11.90;99.90
53073;DHT22;38955;48.916;2.336;2024-02-04T02:45:20;12.00;99.90
53073;DHT22;38955;48.916;2.336;2024-02-04T02:47:23;12.00;99.90
53073;DHT22;38955;48.916;2.336;2024-02-04T02:49:27;12.10;99.90
53073;DHT22;38955;48.916;2.336;2024-02-04T02:51:29;12.00;99.90
53073;DHT22;38955;48.916;2.336;2024-02-04T02:53:31;11.90;99.90
53073;DHT22;38955;48.916;2.336;2024-02-04T02:55:33;11.80;99.90
53073;DHT22;38955;48.916;2.336;2024-02-04T02:57:36;11.90;99.90
53073;DHT22;38955;48.916;2.336;2024-02-04T02:59:38;11.90;99.90
53073;DHT22;38955;48.916;2.336;2024-02-04T03:01:40;11.90;99.90
53073;DHT22;38955;48.916;2.336;2024-02-04T03:03:42;11.80;99.90
53073;DHT22;38955;48.916;2.336;2024-02-04T03:05:45;11.80;99.90
53073;DHT22;38955;48.916;2.336;2024-02-04T03:07:47;11.80;99.90
53073;DHT22;38955;48.916;2.336;2024-02-04T03:09:49;11.80;99.90
53073;DHT22;38955;48.916;2.336;2024-02-04T03:11:51;11.80;99.90
53073;DHT22;38955;48.916;2.336;2024-02-04T03:13:55;11.70;99.90
53073;DHT22;38955;48.916;2.336;2024-02-04T03:15:57;11.80;99.90
53073;DHT22;38955;48.916;2.336;2024-02-04T03:17:59;11.80;99.90
53073;DHT22;38955;48.916;2.336;2024-02-04T03:20:01;11.80;99.90
53073;DHT22;38955;48.916;2.336;2024-02-04T03:22:04;11.70;99.90
53073;DHT22;38955;48.916;2.336;2024-02-04T03:24:06;11.70;99.90
53073;DHT22;38955;48.916;2.336;2024-02-04T03:26:09;11.80;99.90
53073;DHT22;38955;48.916;2.336;2024-02-04T03:28:11;11.70;99.90
53073;DHT22;38955;48.916;2.336;2024-02-04T03:30:15;11.70;99.90
53073;DHT22;38955;48.916;2.336;2024-02-04T03:32:17;11.70;99.90
53073;DHT22;38955;48.916;2.336;2024-02-04T03:34:19;11.80;99.90
53073;DHT22;38955;48.916;2.336;2024-02-04T03:36:22;11.70;99.90
53073;DHT22;38955;48.916;2.336;2024-02-04T03:38:27;11.70;99.90
53073;DHT22;38955;48.916;2.336;2024-02-04T03:40:29;11.70;99.90
53073;DHT22;38955;48.916;2.336;2024-02-04T03:42:32;11.70;99.90
53073;DHT22;38955;48.916;2.336;2024-02-04T03:44:36;11.70;99.90
53073;DHT22;38955;48.916;2.336;2024-02-04T03:46:39;11.70;99.90
53073;DHT22;38955;48.916;2.336;2024-02-04T03:48:42;11.70;99.90
53073;DHT22;38955;48.916;2.336;2024-02-04T03:50:45;11.70;99.90
53073;DHT22;38955;48.916;2.336;2024-02-04T03:52:47;11.70;99.90
53073;DHT22;38955;48.916;2.336;2024-02-04T03:54:49;11.70;99.90
53073;DHT22;38955;48.916;2.336;2024-02-04T03:56:51;11.60;99.90
53073;DHT22;38955;48.916;2.336;2024-02-04T03:58:53;11.70;99.90
53073;DHT22;38955;48.916;2.336;2024-02-04T04:00:55;11.70;99.90
53073;DHT22;38955;48.916;2.336;2024-02-04T04:02:59;11.70;99.90
53073;DHT22;38955;48.916;2.336;2024-02-04T04:05:01;11.70;99.90
53073;DHT22;38955;48.916;2.336;2024-02-04T04:07:03;11.70;99.90
53073;DHT22;38955;48.916;2.336;2024-02-04T04:09:06;11.60;99.90
53073;DHT22;38955;48.916;2.336;2024-02-04T04:11:09;11.70;99.90
53073;DHT22;38955;48.916;2.336;2024-02-04T04:13:11;11.70;99.90
53073;DHT22;38955;48.916;2.336;2024-02-04T04:15:13;11.70;99.90
53073;DHT22;38955;48.916;2.336;2024-02-04T04:17:15;11.70;99.90
53073;DHT22;38955;48.916;2.336;2024-02-04T04:19:18;11.70;99.90
53073;DHT22;38955;48.916;2.336;2024-02-04T04:21:21;11.80;99.90
53073;DHT22;38955;48.916;2.336;2024-02-04T04:23:23;11.80;99.90
53073;DHT22;38955;48.916;2.336;2024-02-04T04:25:25;11.70;99.90
53073;DHT22;38955;48.916;2.336;2024-02-04T04:27:27;11.70;99.90
53073;DHT22;38955;48.916;2.336;2024-02-04T04:29:30;11.70;99.90
53073;DHT22;38955;48.916;2.336;2024-02-04T04:31:32;11.70;99.90
53073;DHT22;38955;48.916;2.336;2024-02-04T04:33:34;11.70;99.90
53073;DHT22;38955;48.916;2.336;2024-02-04T04:35:39;11.70;99.90
53073;DHT22;38955;48.916;2.336;2024-02-04T04:37:41;11.70;99.90
53073;DHT22;38955;48.916;2.336;2024-02-04T04:39:43;11.60;99.90
53073;DHT22;38955;48.916;2.336;2024-02-04T04:41:45;11.60;99.90
53073;DHT22;38955;48.916;2.336;2024-02-04T04:43:47;11.50;99.90
53073;DHT22;38955;48.916;2.336;2024-02-04T04:45:49;11.50;99.90
53073;DHT22;38955;48.916;2.336;2024-02-04T04:47:51;11.50;99.90
53073;DHT22;38955;48.916;2.336;2024-02-04T04:49:53;11.50;99.90
53073;DHT22;38955;48.916;2.336;2024-02-04T04:51:57;11.60;99.90
53073;DHT22;38955;48.916;2.336;2024-02-04T04:53:59;11.50;99.90
53073;DHT22;38955;48.916;2.336;2024-02-04T04:56:01;11.50;99.90
53073;DHT22;38955;48.916;2.336;2024-02-04T04:58:04;11.50;99.90
53073;DHT22;38955;48.916;2.336;2024-02-04T05:00:07;11.60;99.90
53073;DHT22;38955;48.916;2.336;2024-02-04T05:02:11;11.60;99.90
53073;DHT22;38955;48.916;2.336;2024-02-04T05:04:14;11.60;99.90
53073;DHT22;38955;48.916;2.336;2024-02-04T05:06:17;11.70;99.90
53073;DHT22;38955;48.916;2.336;2024-02-04T05:08:20;11.60;99.90
53073;DHT22;38955;48.916;2.336;2024-02-04T05:10:22;11.60;99.90
53073;DHT22;38955;48.916;2.336;2024-02-04T05:12:24;11.60;99.90
53073;DHT22;38955;48.916;2.336;2024-02-04T05:14:26;11.60;99.90
53073;DHT22;38955;48.916;2.336;2024-02-04T05:16:30;11.60;99.90
53073;DHT22;38955;48.916;2.336;2024-02-04T05:18:32;11.60;99.90
53073;DHT22;38955;48.916;2.336;2024-02-04T05:20:34;11.60;99.90
53073;DHT22;38955;48.916;2.336;2024-02-04T05:22:36;11.60;99.90
53073;DHT22;38955;48.916;2.336;2024-02-04T05:24:41;11.60;99.90
53073;DHT22;38955;48.916;2.336;2024-02-04T05:26:43;11.50;99.90
53073;DHT22;38955;48.916;2.336;2024-02-04T05:28:45;11.50;99.90
53073;DHT22;38955;48.916;2.336;2024-02-04T05:30:47;11.50;99.90
53073;DHT22;38955;48.916;2.336;2024-02-04T05:32:49;11.50;99.90
53073;DHT22;38955;48.916;2.336;2024-02-04T05:34:51;11.60;99.90
53073;DHT22;38955;48.916;2.336;2024-02-04T05:36:53;11.60;99.90
53073;DHT22;38955;48.916;2.336;2024-02-04T05:38:56;11.60;99.90
53073;DHT22;38955;48.916;2.336;2024-02-04T05:40:59;11.60;99.90
53073;DHT22;38955;48.916;2.336;2024-02-04T05:43:01;11.50;99.90
53073;DHT22;38955;48.916;2.336;2024-02-04T05:45:13;11.50;99.90
53073;DHT22;38955;48.916;2.336;2024-02-04T05:47:15;11.60;99.90
53073;DHT22;38955;48.916;2.336;2024-02-04T05:49:17;11.50;99.90
53073;DHT22;38955;48.916;2.336;2024-02-04T05:51:21;11.50;99.90
53073;DHT22;38955;48.916;2.336;2024-02-04T05:53:23;11.50;99.90
53073;DHT22;38955;48.916;2.336;2024-02-04T05:55:25;11.60;99.90
53073;DHT22;38955;48.916;2.336;2024-02-04T05:57:28;11.60;99.90
53073;DHT22;38955;48.916;2.336;2024-02-04T05:59:31;11.70;99.90
53073;DHT22;38955;48.916;2.336;2024-02-04T06:01:33;11.70;99.90
53073;DHT22;38955;48.916;2.336;2024-02-04T06:03:35;11.50;99.90
53073;DHT22;38955;48.916;2.336;2024-02-04T06:05:37;11.50;99.90
53073;DHT22;38955;48.916;2.336;2024-02-04T06:07:39;11.50;99.90
53073;DHT22;38955;48.916;2.336;2024-02-04T06:09:41;11.50;99.90
53073;DHT22;38955;48.916;2.336;2024-02-04T06:11:45;11.60;99.90
53073;DHT22;38955;48.916;2.336;2024-02-04T06:13:49;11.60;99.90
53073;DHT22;38955;48.916;2.336;2024-02-04T06:15:51;11.70;99.90
53073;DHT22;38955;48.916;2.336;2024-02-04T06:17:53;11.50;99.90
53073;DHT22;38955;48.916;2.336;2024-02-04T06:19:55;11.50;99.90
53073;DHT22;38955;48.916;2.336;2024-02-04T06:21:59;11.60;99.90
53073;DHT22;38955;48.916;2.336;2024-02-04T06:24:01;11.60;99.90
53073;DHT22;38955;48.916;2.336;2024-02-04T06:26:04;11.50;99.90
53073;DHT22;38955;48.916;2.336;2024-02-04T06:28:06;11.60;99.90
53073;DHT22;38955;48.916;2.336;2024-02-04T06:30:12;11.50;99.90
53073;DHT22;38955;48.916;2.336;2024-02-04T06:32:14;11.50;99.90
53073;DHT22;38955;48.916;2.336;2024-02-04T06:34:16;11.50;99.90
53073;DHT22;38955;48.916;2.336;2024-02-04T06:36:19;11.50;99.90
53073;DHT22;38955;48.916;2.336;2024-02-04T06:38:21;11.50;99.90
53073;DHT22;38955;48.916;2.336;2024-02-04T06:40:23;11.50;99.90
53073;DHT22;38955;48.916;2.336;2024-02-04T06:42:25;11.40;99.90
53073;DHT22;38955;48.916;2.336;2024-02-04T06:44:27;11.40;99.90
53073;DHT22;38955;48.916;2.336;2024-02-04T06:46:31;11.50;99.90
53073;DHT22;38955;48.916;2.336;2024-02-04T06:48:33;11.40;99.90
53073;DHT22;38955;48.916;2.336;2024-02-04T06:50:35;11.40;99.90
53073;DHT22;38955;48.916;2.336;2024-02-04T06:52:37;11.40;99.90
53073;DHT22;38955;48.916;2.336;2024-02-04T06:54:40;11.50;99.90
53073;DHT22;38955;48.916;2.336;2024-02-04T06:56:42;11.40;99.90
53073;DHT22;38955;48.916;2.336;2024-02-04T06:58:44;11.50;99.90
53073;DHT22;38955;48.916;2.336;2024-02-04T07:00:46;11.50;99.90
53073;DHT22;38955;48.916;2.336;2024-02-04T07:02:50;11.60;99.90
53073;DHT22;38955;48.916;2.336;2024-02-04T07:04:52;11.50;99.90
53073;DHT22;38955;48.916;2.336;2024-02-04T07:06:56;11.60;99.90
53073;DHT22;38955;48.916;2.336;2024-02-04T07:08:58;11.40;99.90
53073;DHT22;38955;48.916;2.336;2024-02-04T07:11:01;11.40;99.90
53073;DHT22;38955;48.916;2.336;2024-02-04T07:13:03;11.40;99.90
53073;DHT22;38955;48.916;2.336;2024-02-04T07:15:06;11.40;99.90
53073;DHT22;38955;48.916;2.336;2024-02-04T07:17:08;11.40;99.90
53073;DHT22;38955;48.916;2.336;2024-02-04T07:19:11;11.40;99.90
53073;DHT22;38955;48.916;2.336;2024-02-04T07:21:13;11.50;99.90
53073;DHT22;38955;48.916;2.336;2024-02-04T07:23:15;11.50;99.90
53073;DHT22;38955;48.916;2.336;2024-02-04T07:25:17;11.50;99.90
53073;DHT22;38955;48.916;2.336;2024-02-04T07:27:19;11.50;99.90
53073;DHT22;38955;48.916;2.336;2024-02-04T07:29:21;11.50;99.90
53073;DHT22;38955;48.916;2.336;2024-02-04T07:31:23;11.50;99.90
53073;DHT22;38955;48.916;2.336;2024-02-04T07:33:25;11.50;99.90
53073;DHT22;38955;48.916;2.336;2024-02-04T07:35:31;11.50;99.90
53073;DHT22;38955;48.916;2.336;2024-02-04T07:37:34;11.50;99.90
53073;DHT22;38955;48.916;2.336;2024-02-04T07:39:36;11.40;99.90
53073;DHT22;38955;48.916;2.336;2024-02-04T07:41:38;11.40;99.90
53073;DHT22;38955;48.916;2.336;2024-02-04T07:43:40;11.60;99.90
53073;DHT22;38955;48.916;2.336;2024-02-04T07:45:42;11.60;99.90
53073;DHT22;38955;48.916;2.336;2024-02-04T07:47:44;11.60;99.90
53073;DHT22;38955;48.916;2.336;2024-02-04T07:49:46;11.70;99.90
53073;DHT22;38955;48.916;2.336;2024-02-04T07:51:50;11.60;99.90
53073;DHT22;38955;48.916;2.336;2024-02-04T07:53:52;11.70;99.90
53073;DHT22;38955;48.916;2.336;2024-02-04T07:55:54;11.70;99.90
53073;DHT22;38955;48.916;2.336;2024-02-04T07:57:56;11.70;99.90
53073;DHT22;38955;48.916;2.336;2024-02-04T07:59:58;11.70;99.90
53073;DHT22;38955;48.916;2.336;2024-02-04T08:02:05;11.70;99.90
53073;DHT22;38955;48.916;2.336;2024-02-04T08:04:08;11.70;99.90
53073;DHT22;38955;48.916;2.336;2024-02-04T08:06:13;11.70;99.90
53073;DHT22;38955;48.916;2.336;2024-02-04T08:08:16;11.80;99.90
53073;DHT22;38955;48.916;2.336;2024-02-04T08:10:18;11.70;99.90
53073;DHT22;38955;48.916;2.336;2024-02-04T08:12:20;11.70;99.90
53073;DHT22;38955;48.916;2.336;2024-02-04T08:14:22;11.70;99.90
53073;DHT22;38955;48.916;2.336;2024-02-04T08:16:24;11.60;99.90
53073;DHT22;38955;48.916;2.336;2024-02-04T08:18:26;11.70;99.90
53073;DHT22;38955;48.916;2.336;2024-02-04T08:20:29;11.70;99.90
53073;DHT22;38955;48.916;2.336;2024-02-04T08:22:31;11.60;99.90
53073;DHT22;38955;48.916;2.336;2024-02-04T08:24:34;11.70;99.90
53073;DHT22;38955;48.916;2.336;2024-02-04T08:26:36;11.70;99.90
53073;DHT22;38955;48.916;2.336;2024-02-04T08:28:39;11.80;99.90
53073;DHT22;38955;48.916;2.336;2024-02-04T08:30:41;11.80;99.90
53073;DHT22;38955;48.916;2.336;2024-02-04T08:32:44;11.80;99.90
53073;DHT22;38955;48.916;2.336;2024-02-04T08:34:46;11.70;99.90
53073;DHT22;38955;48.916;2.336;2024-02-04T08:36:49;11.70;99.90
53073;DHT22;38955;48.916;2.336;2024-02-04T08:38:51;11.70;99.90
53073;DHT22;38955;48.916;2.336;2024-02-04T08:40:55;11.70;99.90
53073;DHT22;38955;48.916;2.336;2024-02-04T08:42:57;11.80;99.90
53073;DHT22;38955;48.916;2.336;2024-02-04T08:44:59;11.80;99.90
53073;DHT22;38955;48.916;2.336;2024-02-04T08:47:01;11.80;99.90
53073;DHT22;38955;48.916;2.336;2024-02-04T08:49:03;11.80;99.90
53073;DHT22;38955;48.916;2.336;2024-02-04T08:51:10;11.80;99.90
53073;DHT22;38955;48.916;2.336;2024-02-04T08:53:12;11.90;99.90
53073;DHT22;38955;48.916;2.336;2024-02-04T08:55:14;11.80;99.90
53073;DHT22;38955;48.916;2.336;2024-02-04T08:57:18;11.90;99.90
53073;DHT22;38955;48.916;2.336;2024-02-04T08:59:20;11.80;99.90
53073;DHT22;38955;48.916;2.336;2024-02-04T09:01:22;11.80;99.90
53073;DHT22;38955;48.916;2.336;2024-02-04T09:03:24;11.90;99.90
53073;DHT22;38955;48.916;2.336;2024-02-04T09:05:26;11.90;99.90
53073;DHT22;38955;48.916;2.336;2024-02-04T09:07:28;11.90;99.90
53073;DHT22;38955;48.916;2.336;2024-02-04T09:09:35;12.00;99.90
53073;DHT22;38955;48.916;2.336;2024-02-04T09:11:37;12.00;99.90
53073;DHT22;38955;48.916;2.336;2024-02-04T09:13:40;12.10;99.90
53073;DHT22;38955;48.916;2.336;2024-02-04T09:15:43;12.10;99.90
53073;DHT22;38955;48.916;2.336;2024-02-04T09:17:45;12.10;99.90
53073;DHT22;38955;48.916;2.336;2024-02-04T09:19:47;12.10;99.90
53073;DHT22;38955;48.916;2.336;2024-02-04T09:21:49;12.20;99.90
53073;DHT22;38955;48.916;2.336;2024-02-04T09:23:51;12.10;99.90
53073;DHT22;38955;48.916;2.336;2024-02-04T09:25:54;12.20;99.90
53073;DHT22;38955;48.916;2.336;2024-02-04T09:27:58;12.20;99.90
53073;DHT22;38955;48.916;2.336;2024-02-04T09:30:02;12.10;99.90
53073;DHT22;38955;48.916;2.336;2024-02-04T09:32:05;12.10;99.90
53073;DHT22;38955;48.916;2.336;2024-02-04T09:34:07;12.20;99.90
53073;DHT22;38955;48.916;2.336;2024-02-04T09:36:10;12.20;99.90
53073;DHT22;38955;48.916;2.336;2024-02-04T09:38:13;12.30;99.90
53073;DHT22;38955;48.916;2.336;2024-02-04T09:40:16;12.20;99.90
53073;DHT22;38955;48.916;2.336;2024-02-04T09:42:20;12.40;99.90
53073;DHT22;38955;48.916;2.336;2024-02-04T09:44:26;12.30;99.90
53073;DHT22;38955;48.916;2.336;2024-02-04T09:46:30;12.30;99.90
53073;DHT22;38955;48.916;2.336;2024-02-04T09:48:33;12.30;99.90
53073;DHT22;38955;48.916;2.336;2024-02-04T09:50:36;12.30;99.90
53073;DHT22;38955;48.916;2.336;2024-02-04T09:52:40;12.30;99.90
53073;DHT22;38955;48.916;2.336;2024-02-04T09:54:43;12.30;99.90
53073;DHT22;38955;48.916;2.336;2024-02-04T09:56:47;12.30;99.90
53073;DHT22;38955;48.916;2.336;2024-02-04T09:58:49;12.20;99.90
53073;DHT22;38955;48.916;2.336;2024-02-04T10:00:55;12.30;99.90
53073;DHT22;38955;48.916;2.336;2024-02-04T10:03:00;12.40;99.90
53073;DHT22;38955;48.916;2.336;2024-02-04T10:05:03;12.40;99.90
53073;DHT22;38955;48.916;2.336;2024-02-04T10:07:06;12.40;99.90
53073;DHT22;38955;48.916;2.336;2024-02-04T10:09:08;12.50;99.90
53073;DHT22;38955;48.916;2.336;2024-02-04T10:11:10;12.50;99.90
53073;DHT22;38955;48.916;2.336;2024-02-04T10:13:13;12.50;99.90
53073;DHT22;38955;48.916;2.336;2024-02-04T10:15:15;12.40;99.90
53073;DHT22;38955;48.916;2.336;2024-02-04T10:17:18;12.50;99.90
53073;DHT22;38955;48.916;2.336;2024-02-04T10:19:25;12.60;99.90
53073;DHT22;38955;48.916;2.336;2024-02-04T10:21:28;12.50;99.90
53073;DHT22;38955;48.916;2.336;2024-02-04T10:23:30;12.50;99.90
53073;DHT22;38955;48.916;2.336;2024-02-04T10:25:32;12.40;99.90
53073;DHT22;38955;48.916;2.336;2024-02-04T10:27:35;12.50;99.90
53073;DHT22;38955;48.916;2.336;2024-02-04T10:29:39;12.50;99.90
53073;DHT22;38955;48.916;2.336;2024-02-04T10:31:41;12.60;99.90
53073;DHT22;38955;48.916;2.336;2024-02-04T10:33:43;12.70;99.90
53073;DHT22;38955;48.916;2.336;2024-02-04T10:35:48;12.70;99.90
53073;DHT22;38955;48.916;2.336;2024-02-04T10:37:50;12.70;99.90
53073;DHT22;38955;48.916;2.336;2024-02-04T10:39:52;12.70;99.90
53073;DHT22;38955;48.916;2.336;2024-02-04T10:41:56;12.70;99.90
53073;DHT22;38955;48.916;2.336;2024-02-04T10:44:03;12.70;99.90
53073;DHT22;38955;48.916;2.336;2024-02-04T10:46:09;12.70;99.90
53073;DHT22;38955;48.916;2.336;2024-02-04T10:48:15;12.70;99.90
53073;DHT22;38955;48.916;2.336;2024-02-04T10:50:17;12.70;99.90
53073;DHT22;38955;48.916;2.336;2024-02-04T10:52:22;12.60;99.90
53073;DHT22;38955;48.916;2.336;2024-02-04T10:54:26;12.60;99.90
53073;DHT22;38955;48.916;2.336;2024-02-04T10:56:32;12.70;99.90
53073;DHT22;38955;48.916;2.336;2024-02-04T10:58:35;12.60;99.90
53073;DHT22;38955;48.916;2.336;2024-02-04T11:00:37;12.80;99.90
53073;DHT22;38955;48.916;2.336;2024-02-04T11:02:40;12.70;99.90
53073;DHT22;38955;48.916;2.336;2024-02-04T11:04:46;12.80;99.90
53073;DHT22;38955;48.916;2.336;2024-02-04T11:06:50;12.90;99.90
53073;DHT22;38955;48.916;2.336;2024-02-04T11:08:55;13.00;99.90
53073;DHT22;38955;48.916;2.336;2024-02-04T11:10:59;13.10;99.90
53073;DHT22;38955;48.916;2.336;2024-02-04T11:13:02;13.00;99.90
53073;DHT22;38955;48.916;2.336;2024-02-04T11:15:09;13.10;99.90
53073;DHT22;38955;48.916;2.336;2024-02-04T11:17:34;13.00;99.90
53073;DHT22;38955;48.916;2.336;2024-02-04T11:19:49;12.90;99.90
53073;DHT22;38955;48.916;2.336;2024-02-04T11:22:17;12.80;99.90
53073;DHT22;38955;48.916;2.336;2024-02-04T11:24:40;12.80;99.90
53073;DHT22;38955;48.916;2.336;2024-02-04T11:26:46;12.80;99.90
53073;DHT22;38955;48.916;2.336;2024-02-04T11:28:48;12.70;99.90
53073;DHT22;38955;48.916;2.336;2024-02-04T11:30:51;12.80;99.90
53073;DHT22;38955;48.916;2.336;2024-02-04T11:32:53;12.60;99.90
53073;DHT22;38955;48.916;2.336;2024-02-04T11:34:56;12.80;99.90
53073;DHT22;38955;48.916;2.336;2024-02-04T11:37:15;12.90;99.90
53073;DHT22;38955;48.916;2.336;2024-02-04T11:39:18;12.90;99.90
53073;DHT22;38955;48.916;2.336;2024-02-04T11:41:26;13.00;99.90
53073;DHT22;38955;48.916;2.336;2024-02-04T11:43:32;13.00;99.90
53073;DHT22;38955;48.916;2.336;2024-02-04T11:45:36;13.00;99.90
53073;DHT22;38955;48.916;2.336;2024-02-04T11:47:40;13.00;99.90
53073;DHT22;38955;48.916;2.336;2024-02-04T11:49:53;12.90;99.90
53073;DHT22;38955;48.916;2.336;2024-02-04T11:51:56;12.90;99.90
53073;DHT22;38955;48.916;2.336;2024-02-04T11:53:58;12.90;99.90
53073;DHT22;38955;48.916;2.336;2024-02-04T11:56:04;13.10;99.90
53073;DHT22;38955;48.916;2.336;2024-02-04T11:58:08;12.90;99.90
53073;DHT22;38955;48.916;2.336;2024-02-04T12:00:12;12.90;99.90
53073;DHT22;38955;48.916;2.336;2024-02-04T12:02:16;13.10;99.90
53073;DHT22;38955;48.916;2.336;2024-02-04T12:04:18;12.90;99.90
53073;DHT22;38955;48.916;2.336;2024-02-04T12:06:22;12.90;99.90
53073;DHT22;38955;48.916;2.336;2024-02-04T12:08:24;12.90;99.90
53073;DHT22;38955;48.916;2.336;2024-02-04T12:10:27;13.20;99.90
53073;DHT22;38955;48.916;2.336;2024-02-04T12:12:29;13.30;99.90
53073;DHT22;38955;48.916;2.336;2024-02-04T12:14:35;13.30;99.90
53073;DHT22;38955;48.916;2.336;2024-02-04T12:16:38;13.50;99.90
53073;DHT22;38955;48.916;2.336;2024-02-04T12:18:48;13.60;99.90
53073;DHT22;38955;48.916;2.336;2024-02-04T12:20:50;13.60;99.90
53073;DHT22;38955;48.916;2.336;2024-02-04T12:22:53;13.80;99.90
53073;DHT22;38955;48.916;2.336;2024-02-04T12:24:55;13.80;99.90
53073;DHT22;38955;48.916;2.336;2024-02-04T12:26:57;13.90;99.90
53073;DHT22;38955;48.916;2.336;2024-02-04T12:28:59;14.10;99.80
53073;DHT22;38955;48.916;2.336;2024-02-04T12:31:03;14.00;99.50
53073;DHT22;38955;48.916;2.336;2024-02-04T12:33:06;14.00;99.20
53073;DHT22;38955;48.916;2.336;2024-02-04T12:35:13;14.00;99.30
53073;DHT22;38955;48.916;2.336;2024-02-04T12:37:15;13.80;99.70
53073;DHT22;38955;48.916;2.336;2024-02-04T12:39:18;13.80;99.50
53073;DHT22;38955;48.916;2.336;2024-02-04T12:41:20;13.80;99.00
53073;DHT22;38955;48.916;2.336;2024-02-04T12:43:22;13.90;99.30
53073;DHT22;38955;48.916;2.336;2024-02-04T12:45:25;13.90;99.30
53073;DHT22;38955;48.916;2.336;2024-02-04T12:47:29;13.70;99.50
53073;DHT22;38955;48.916;2.336;2024-02-04T12:49:31;13.40;99.30
53073;DHT22;38955;48.916;2.336;2024-02-04T12:51:33;13.20;99.90
53073;DHT22;38955;48.916;2.336;2024-02-04T12:53:36;13.30;99.90
53073;DHT22;38955;48.916;2.336;2024-02-04T12:55:38;13.20;99.90
53073;DHT22;38955;48.916;2.336;2024-02-04T12:57:40;13.20;99.90